Time;durP1;ratioP1;P1;durP2;ratioP2;P2;SDS_P1;SDS_P2;PMS_P1;PMS_P2;Temp;Humidity;BMP_temperature;BMP_pressure;BME280_temperature;BME280_humidity;BME280_pressure;Samples;Min_cycle;Max_cycle;Signal;HPM_P1;HPM_P2
2021/06/07 00:00:56;;;;;;;35.73;28.93;;;16.30;99.90;;;;;;5085265;28;20579;-69
2021/06/07 00:03:22;;;;;;;36.78;29.27;;;16.20;99.90;;;;;;5088978;28;20666;-69
2021/06/07 00:05:50;;;;;;;35.50;28.58;;;16.20;99.90;;;;;;5092657;28;20570;-70
2021/06/07 00:08:16;;;;;;;35.57;28.43;;;16.30;99.90;;;;;;5084798;28;20255;-68
2021/06/07 00:10:43;;;;;;;33.80;28.45;;;16.30;99.90;;;;;;5075864;28;20666;-68
2021/06/07 00:13:11;;;;;;;34.92;28.75;;;16.30;99.90;;;;;;5074425;28;20229;-68
2021/06/07 00:15:38;;;;;;;38.92;28.95;;;16.30;99.90;;;;;;5091583;28;20193;-68
2021/06/07 00:18:05;;;;;;;33.00;27.17;;;16.20;99.90;;;;;;5088816;28;20661;-70
2021/06/07 00:20:35;;;;;;;34.60;27.48;;;16.20;99.90;;;;;;5089815;28;20218;-69
2021/06/07 00:23:04;;;;;;;34.23;26.67;;;16.30;99.90;;;;;;5087736;28;20210;-70
2021/06/07 00:25:30;;;;;;;33.85;27.08;;;16.30;99.90;;;;;;5083686;28;20198;-70
2021/06/07 00:27:57;;;;;;;33.75;27.58;;;16.20;99.90;;;;;;5077385;28;20225;-69
2021/06/07 00:30:23;;;;;;;33.25;26.92;;;16.20;99.90;;;;;;5081303;28;20193;-68
2021/06/07 00:32:50;;;;;;;33.33;25.35;;;16.20;99.90;;;;;;5092339;28;20247;-68
2021/06/07 00:35:20;;;;;;;32.47;25.40;;;16.20;99.90;;;;;;5079627;28;20201;-70
2021/06/07 00:37:47;;;;;;;34.10;26.50;;;16.20;99.90;;;;;;5070806;28;20205;-68
2021/06/07 00:40:16;;;;;;;34.17;26.17;;;16.20;99.90;;;;;;5079373;28;20233;-68
2021/06/07 00:42:42;;;;;;;31.13;24.85;;;16.20;99.90;;;;;;5092439;28;20565;-69
2021/06/07 00:45:12;;;;;;;31.13;25.00;;;16.20;99.90;;;;;;5087373;28;20632;-69
2021/06/07 00:47:39;;;;;;;33.03;25.80;;;16.20;99.90;;;;;;5088621;28;20681;-70
2021/06/07 00:50:10;;;;;;;31.63;24.63;;;16.20;99.90;;;;;;5087487;28;20194;-70
2021/06/07 00:52:37;;;;;;;30.50;25.10;;;16.10;99.90;;;;;;5078223;28;20205;-69
2021/06/07 00:55:04;;;;;;;32.07;24.67;;;16.10;99.90;;;;;;5074469;28;20203;-70
2021/06/07 00:57:32;;;;;;;33.05;23.60;;;16.10;99.90;;;;;;5090974;28;20246;-70
2021/06/07 00:59:58;;;;;;;30.13;23.93;;;16.20;99.90;;;;;;5080472;28;20225;-68
2021/06/07 01:02:25;;;;;;;30.63;24.02;;;16.10;99.90;;;;;;5089946;28;20209;-70
2021/06/07 01:04:51;;;;;;;26.15;21.77;;;16.10;99.90;;;;;;5089912;28;20198;-70
2021/06/07 01:07:18;;;;;;;29.58;22.25;;;16.10;99.90;;;;;;5084053;28;20643;-70
2021/06/07 01:09:44;;;;;;;30.90;22.45;;;16.10;99.90;;;;;;5071855;28;20201;-70
2021/06/07 01:12:12;;;;;;;28.10;22.98;;;16.10;99.90;;;;;;5084442;28;20240;-69
2021/06/07 01:14:40;;;;;;;30.47;22.53;;;16.00;99.90;;;;;;5087374;28;20199;-71
2021/06/07 01:17:06;;;;;;;28.03;22.73;;;15.90;99.90;;;;;;5087492;28;20202;-69
2021/06/07 01:19:33;;;;;;;28.27;23.23;;;16.00;99.90;;;;;;5089416;28;20222;-70
2021/06/07 01:22:04;;;;;;;27.20;20.97;;;16.00;99.90;;;;;;5080860;28;20213;-70
2021/06/07 01:24:31;;;;;;;25.20;20.95;;;16.00;99.90;;;;;;5091558;28;20243;-69
2021/06/07 01:26:57;;;;;;;27.67;21.58;;;16.00;99.90;;;;;;5091631;28;20202;-68
2021/06/07 01:29:24;;;;;;;28.48;21.33;;;16.00;99.90;;;;;;5092311;28;20212;-70
2021/06/07 01:31:50;;;;;;;26.07;20.57;;;15.90;99.90;;;;;;5090739;28;20555;-68
2021/06/07 01:34:17;;;;;;;27.57;20.83;;;15.90;99.90;;;;;;5091707;28;20209;-69
2021/06/07 01:36:43;;;;;;;27.13;21.13;;;16.00;99.90;;;;;;5081219;28;20197;-69
2021/06/07 01:39:11;;;;;;;25.70;20.57;;;15.90;99.90;;;;;;5091681;28;20199;-69
2021/06/07 01:41:37;;;;;;;25.02;20.58;;;16.00;99.90;;;;;;5084348;28;20243;-70
2021/06/07 01:44:04;;;;;;;28.40;20.17;;;16.00;99.90;;;;;;5091609;28;20579;-68
2021/06/07 01:46:30;;;;;;;24.33;18.95;;;16.00;99.90;;;;;;5090705;28;20205;-70
2021/06/07 01:48:56;;;;;;;24.63;19.20;;;15.80;99.90;;;;;;5081999;28;20680;-70
2021/06/07 01:51:23;;;;;;;25.87;20.10;;;15.90;99.90;;;;;;5088392;28;20194;-70
2021/06/07 01:53:49;;;;;;;24.10;20.13;;;15.80;99.90;;;;;;5080028;28;20509;-69
2021/06/07 01:56:17;;;;;;;24.83;19.97;;;15.80;99.90;;;;;;5091040;28;20255;-69
2021/06/07 01:58:43;;;;;;;25.95;20.50;;;15.70;99.90;;;;;;5090981;28;20665;-70
2021/06/07 02:01:13;;;;;;;25.95;20.38;;;15.70;99.90;;;;;;5088309;28;20224;-69
2021/06/07 02:03:39;;;;;;;26.47;21.80;;;15.70;99.90;;;;;;5091369;28;20724;-68
2021/06/07 02:06:09;;;;;;;27.67;20.90;;;15.60;99.90;;;;;;5085269;28;20194;-68
2021/06/07 02:08:35;;;;;;;26.10;19.67;;;15.60;99.90;;;;;;5071470;28;20243;-68
2021/06/07 02:11:05;;;;;;;23.40;19.87;;;15.60;99.90;;;;;;5077501;28;20200;-69
2021/06/07 02:13:33;;;;;;;27.17;20.87;;;15.60;99.90;;;;;;5076225;28;20198;-69
2021/06/07 02:16:01;;;;;;;25.87;19.43;;;15.60;99.90;;;;;;5075837;28;20194;-69
2021/06/07 02:18:29;;;;;;;23.43;19.80;;;15.50;99.90;;;;;;5071359;28;20206;-69
2021/06/07 02:20:56;;;;;;;24.70;19.43;;;15.60;99.90;;;;;;5077252;28;20221;-69
2021/06/07 02:23:22;;;;;;;21.67;18.50;;;15.50;99.90;;;;;;5076090;28;20208;-69
2021/06/07 02:25:51;;;;;;;22.67;16.97;;;15.60;99.90;;;;;;5079043;28;20198;-70
2021/06/07 02:28:17;;;;;;;21.67;16.53;;;15.50;99.90;;;;;;5081477;28;20202;-69
2021/06/07 02:30:46;;;;;;;20.00;16.80;;;15.40;99.90;;;;;;5082400;28;20201;-69
2021/06/07 02:33:13;;;;;;;21.70;15.23;;;15.40;99.90;;;;;;5078105;28;20583;-70
2021/06/07 02:35:40;;;;;;;22.53;16.33;;;15.40;99.90;;;;;;5078617;28;20205;-69
2021/06/07 02:38:07;;;;;;;22.23;16.23;;;15.40;99.90;;;;;;5074641;28;20225;-69
2021/06/07 02:40:34;;;;;;;23.70;16.43;;;15.40;99.90;;;;;;5085311;28;20210;-70
2021/06/07 02:43:01;;;;;;;20.73;16.37;;;15.40;99.90;;;;;;5073632;28;20206;-69
2021/06/07 02:45:28;;;;;;;21.73;16.23;;;15.40;99.90;;;;;;5089242;28;20198;-69
2021/06/07 02:47:58;;;;;;;20.07;17.03;;;15.30;99.90;;;;;;5084049;28;20206;-69
2021/06/07 02:50:27;;;;;;;22.23;16.60;;;15.40;99.90;;;;;;5088321;28;20200;-69
2021/06/07 02:52:54;;;;;;;23.67;17.27;;;15.40;99.90;;;;;;5084218;28;20208;-69
2021/06/07 02:55:22;;;;;;;22.30;17.70;;;15.30;99.90;;;;;;5070527;28;20709;-69
2021/06/07 02:57:50;;;;;;;22.87;18.23;;;15.30;99.90;;;;;;5084380;28;20206;-69
2021/06/07 03:00:20;;;;;;;22.03;17.23;;;15.30;99.90;;;;;;5090168;28;20625;-69
2021/06/07 03:02:47;;;;;;;27.40;19.10;;;15.40;99.90;;;;;;5087633;28;20198;-69
2021/06/07 03:05:15;;;;;;;25.27;19.13;;;15.40;99.90;;;;;;5090436;28;20320;-69
2021/06/07 03:07:41;;;;;;;28.17;22.40;;;15.30;99.90;;;;;;5089712;28;20206;-69
2021/06/07 03:10:09;;;;;;;27.03;21.60;;;15.20;99.90;;;;;;5085918;28;20251;-69
2021/06/07 03:12:35;;;;;;;28.03;21.60;;;15.20;99.90;;;;;;5093115;28;20570;-69
2021/06/07 03:15:02;;;;;;;26.93;21.97;;;15.20;99.90;;;;;;5080116;28;20197;-69
2021/06/07 03:17:29;;;;;;;29.93;22.33;;;15.20;99.90;;;;;;5094039;28;20209;-69
2021/06/07 03:19:55;;;;;;;27.00;21.67;;;15.20;99.90;;;;;;5090130;28;20222;-69
2021/06/07 03:22:23;;;;;;;26.50;20.60;;;15.20;99.90;;;;;;5093902;28;20197;-68
2021/06/07 03:24:50;;;;;;;31.20;22.03;;;15.20;99.90;;;;;;5088631;28;20204;-69
2021/06/07 03:27:17;;;;;;;31.60;23.33;;;15.20;99.90;;;;;;5079246;28;20210;-68
2021/06/07 03:29:43;;;;;;;30.37;23.30;;;15.20;99.90;;;;;;5086343;28;20194;-68
2021/06/07 03:32:11;;;;;;;28.20;21.53;;;15.10;99.90;;;;;;5081070;28;20213;-68
2021/06/07 03:34:37;;;;;;;28.63;22.77;;;15.10;99.90;;;;;;5083741;28;20202;-68
2021/06/07 03:37:04;;;;;;;28.47;21.57;;;15.20;99.90;;;;;;5085851;28;20199;-68
2021/06/07 03:39:32;;;;;;;27.80;22.27;;;15.20;99.90;;;;;;5081649;28;20206;-69
2021/06/07 03:41:58;;;;;;;31.60;22.57;;;15.20;99.90;;;;;;5081745;28;20564;-69
2021/06/07 03:44:25;;;;;;;31.20;23.93;;;15.20;99.90;;;;;;5084209;28;20201;-68
2021/06/07 03:46:51;;;;;;;28.93;22.80;;;15.20;99.90;;;;;;5092726;28;20601;-68
2021/06/07 03:49:18;;;;;;;30.43;22.53;;;15.20;99.90;;;;;;5141298;22;20236;-71
2021/06/07 03:51:44;;;;;;;28.47;22.73;;;15.00;99.90;;;;;;5072662;28;20255;-71
2021/06/07 03:54:11;;;;;;;28.70;22.40;;;15.00;99.90;;;;;;5065909;28;20228;-71
2021/06/07 03:56:38;;;;;;;27.77;21.87;;;15.10;99.90;;;;;;5073279;28;20194;-70
2021/06/07 03:59:05;;;;;;;28.47;22.20;;;15.00;99.90;;;;;;5065939;28;20206;-70
2021/06/07 04:01:31;;;;;;;31.50;23.07;;;15.10;99.90;;;;;;5063561;28;20245;-71
2021/06/07 04:03:57;;;;;;;27.73;22.37;;;15.00;99.90;;;;;;5063669;28;20207;-70
2021/06/07 04:06:24;;;;;;;33.58;23.48;;;15.10;99.90;;;;;;5065350;28;20248;-71
2021/06/07 04:08:55;;;;;;;29.83;23.33;;;15.10;99.90;;;;;;5067905;28;20216;-70
2021/06/07 04:11:22;;;;;;;32.53;23.37;;;15.10;99.90;;;;;;5069903;28;20199;-70
2021/06/07 04:13:49;;;;;;;30.63;22.67;;;15.10;99.90;;;;;;5068509;28;20203;-70
2021/06/07 04:16:16;;;;;;;33.90;23.80;;;15.00;99.90;;;;;;5073009;28;20213;-70
2021/06/07 04:18:42;;;;;;;30.47;22.90;;;15.00;99.90;;;;;;5070054;28;20195;-70
2021/06/07 04:21:09;;;;;;;33.13;24.30;;;15.00;99.90;;;;;;5072146;28;20702;-70
2021/06/07 04:23:35;;;;;;;31.23;23.90;;;15.10;99.90;;;;;;5071834;28;20621;-70
2021/06/07 04:26:02;;;;;;;28.97;23.20;;;15.00;99.90;;;;;;5052109;28;20203;-70
2021/06/07 04:28:28;;;;;;;30.87;23.60;;;15.00;99.90;;;;;;5068257;28;20289;-70
2021/06/07 04:30:56;;;;;;;30.13;24.00;;;15.00;99.90;;;;;;5072067;28;20194;-71
2021/06/07 04:33:22;;;;;;;31.47;24.30;;;15.00;99.90;;;;;;5072365;28;20190;-71
2021/06/07 04:35:48;;;;;;;33.20;23.57;;;15.10;99.90;;;;;;5071016;28;20668;-70
2021/06/07 04:38:15;;;;;;;31.17;24.97;;;15.10;99.90;;;;;;5071996;28;20610;-70
2021/06/07 04:40:43;;;;;;;29.50;23.53;;;15.00;99.90;;;;;;5056287;28;20223;-70
2021/06/07 04:43:11;;;;;;;31.47;24.60;;;15.00;99.90;;;;;;5065054;28;20194;-70
2021/06/07 04:45:39;;;;;;;33.00;23.93;;;15.10;99.90;;;;;;5058507;28;20265;-70
2021/06/07 04:48:08;;;;;;;33.87;23.17;;;15.00;99.90;;;;;;5063226;28;20565;-70
2021/06/07 04:50:35;;;;;;;35.80;22.83;;;14.80;99.90;;;;;;5060048;28;20195;-70
2021/06/07 04:53:04;;;;;;;29.83;21.87;;;14.80;99.90;;;;;;5062471;28;20202;-70
2021/06/07 04:55:34;;;;;;;32.00;23.30;;;14.90;99.90;;;;;;5069087;28;20520;-70
2021/06/07 04:58:03;;;;;;;29.33;22.10;;;14.80;99.90;;;;;;5070060;28;20271;-70
2021/06/07 05:00:30;;;;;;;30.50;21.77;;;15.00;99.90;;;;;;5066519;28;20222;-70
2021/06/07 05:02:57;;;;;;;30.93;22.30;;;15.00;99.90;;;;;;5059665;28;20198;-70
2021/06/07 05:05:25;;;;;;;27.10;20.97;;;15.10;99.90;;;;;;5071907;28;20201;-71
2021/06/07 05:07:51;;;;;;;29.23;22.30;;;15.20;99.90;;;;;;5071430;28;20209;-70
2021/06/07 05:10:18;;;;;;;29.17;20.87;;;15.10;99.90;;;;;;5059116;28;20601;-70
2021/06/07 05:12:45;;;;;;;27.50;21.00;;;15.00;99.90;;;;;;5071500;28;20553;-70
2021/06/07 05:15:13;;;;;;;30.07;21.67;;;15.10;99.90;;;;;;5058934;28;20257;-70
2021/06/07 05:17:40;;;;;;;29.07;21.10;;;15.10;99.90;;;;;;5051744;28;20210;-70
2021/06/07 05:20:09;;;;;;;29.77;22.50;;;15.10;99.90;;;;;;5069942;28;20228;-70
2021/06/07 05:22:37;;;;;;;29.53;22.23;;;15.00;99.90;;;;;;5069713;28;20213;-70
2021/06/07 05:25:05;;;;;;;28.87;22.67;;;15.00;99.90;;;;;;5070599;28;20190;-70
2021/06/07 05:27:31;;;;;;;28.80;21.40;;;15.00;99.90;;;;;;5066525;28;20210;-70
2021/06/07 05:30:00;;;;;;;27.43;21.70;;;15.00;99.90;;;;;;5070838;28;20198;-70
2021/06/07 05:32:26;;;;;;;29.07;21.40;;;14.90;99.90;;;;;;5069670;28;20209;-70
2021/06/07 05:34:53;;;;;;;29.43;22.00;;;15.10;99.90;;;;;;5071138;28;20663;-70
2021/06/07 05:37:20;;;;;;;28.47;21.90;;;15.20;99.90;;;;;;5069920;28;20194;-70
2021/06/07 05:39:47;;;;;;;25.90;21.00;;;15.30;99.90;;;;;;5064269;28;20203;-70
2021/06/07 05:42:14;;;;;;;27.80;22.37;;;15.50;99.90;;;;;;5060953;28;20285;-70
2021/06/07 05:44:40;;;;;;;25.63;20.15;;;15.60;99.90;;;;;;5069477;28;20671;-70
2021/06/07 05:47:06;;;;;;;27.30;21.13;;;15.70;99.90;;;;;;5070849;28;20202;-70
2021/06/07 05:49:37;;;;;;;27.73;21.20;;;15.70;99.90;;;;;;5069202;28;20302;-70
2021/06/07 05:52:05;;;;;;;27.23;21.67;;;15.60;99.90;;;;;;5058844;28;20207;-71
2021/06/07 05:54:31;;;;;;;27.02;21.08;;;15.50;99.90;;;;;;5070460;28;20194;-70
2021/06/07 05:56:59;;;;;;;27.23;21.10;;;15.60;99.90;;;;;;5069091;28;20304;-70
2021/06/07 05:59:25;;;;;;;25.77;20.58;;;15.40;99.90;;;;;;5071364;28;20202;-70
2021/06/07 06:01:52;;;;;;;28.63;21.92;;;15.50;99.90;;;;;;5068557;28;20279;-70
2021/06/07 06:04:18;;;;;;;27.83;21.88;;;15.50;99.90;;;;;;5070810;28;20711;-70
2021/06/07 06:06:44;;;;;;;26.55;21.05;;;15.60;99.90;;;;;;5070019;28;20190;-70
2021/06/07 06:09:11;;;;;;;27.10;20.20;;;15.70;99.90;;;;;;5061469;28;20202;-70
2021/06/07 06:11:37;;;;;;;26.55;20.40;;;15.80;99.90;;;;;;5070416;28;20612;-71
2021/06/07 06:14:05;;;;;;;30.50;22.73;;;16.00;99.90;;;;;;5070099;28;20213;-70
2021/06/07 06:16:31;;;;;;;28.95;20.02;;;16.00;99.90;;;;;;5070031;28;20212;-70
2021/06/07 06:18:57;;;;;;;26.02;18.52;;;15.90;99.90;;;;;;5063909;28;20198;-70
2021/06/07 06:21:27;;;;;;;23.77;17.77;;;15.90;99.90;;;;;;5069348;28;20222;-71
2021/06/07 06:23:53;;;;;;;20.95;17.30;;;16.10;99.90;;;;;;5067777;28;20908;-72
2021/06/07 06:26:20;;;;;;;22.08;17.35;;;16.20;99.90;;;;;;5069538;28;20216;-71
2021/06/07 06:28:47;;;;;;;22.23;17.10;;;16.00;99.90;;;;;;5067166;28;20203;-71
2021/06/07 06:31:15;;;;;;;21.10;17.25;;;15.90;99.90;;;;;;5070172;28;20194;-71
2021/06/07 06:33:42;;;;;;;22.83;17.15;;;15.90;99.90;;;;;;5064955;28;20302;-71
2021/06/07 06:36:09;;;;;;;23.85;17.92;;;15.80;99.90;;;;;;5070469;28;20594;-71
2021/06/07 06:38:36;;;;;;;23.15;17.75;;;15.80;99.90;;;;;;5069980;28;20230;-71
2021/06/07 06:41:03;;;;;;;22.48;17.80;;;15.80;99.90;;;;;;5050617;28;20567;-72
2021/06/07 06:43:29;;;;;;;21.40;16.65;;;15.80;99.90;;;;;;5069507;28;20199;-78
2021/06/07 06:45:56;;;;;;;23.38;17.58;;;15.90;99.90;;;;;;5071856;28;20212;-72
2021/06/07 06:48:24;;;;;;;22.90;16.75;;;16.00;99.90;;;;;;5074059;28;20217;-71
2021/06/07 06:50:50;;;;;;;22.30;17.70;;;16.00;99.90;;;;;;5069279;28;20344;-72
2021/06/07 06:53:18;;;;;;;22.85;17.48;;;16.00;99.90;;;;;;5073063;28;20194;-72
2021/06/07 06:55:45;;;;;;;23.40;17.30;;;15.90;99.90;;;;;;5063895;28;20273;-72
2021/06/07 06:58:12;;;;;;;22.63;17.53;;;16.00;99.90;;;;;;5068876;28;20230;-72
2021/06/07 07:00:39;;;;;;;22.50;17.87;;;16.00;99.90;;;;;;5059780;28;20233;-73
2021/06/07 07:03:06;;;;;;;23.93;17.80;;;16.00;99.90;;;;;;5067242;28;20210;-72
2021/06/07 07:05:34;;;;;;;23.35;17.90;;;16.10;99.90;;;;;;5060131;28;20660;-72
2021/06/07 07:08:01;;;;;;;21.63;17.57;;;16.00;99.90;;;;;;5062220;28;20203;-72
2021/06/07 07:10:27;;;;;;;22.90;18.37;;;16.20;99.90;;;;;;5060022;28;20199;-72
2021/06/07 07:12:54;;;;;;;26.95;18.55;;;16.10;99.90;;;;;;5069291;28;20203;-72
2021/06/07 07:15:21;;;;;;;23.38;17.83;;;16.30;99.90;;;;;;5063871;28;20199;-72
2021/06/07 07:17:48;;;;;;;24.07;18.27;;;16.40;99.90;;;;;;5069837;28;20210;-73
2021/06/07 07:20:15;;;;;;;24.98;18.92;;;16.30;99.90;;;;;;5067987;28;20633;-72
2021/06/07 07:22:44;;;;;;;27.38;19.95;;;16.20;99.90;;;;;;5057327;28;20215;-74
2021/06/07 07:25:11;;;;;;;24.70;18.00;;;16.30;99.90;;;;;;5066625;28;20190;-71
2021/06/07 07:27:38;;;;;;;25.20;19.23;;;16.50;99.90;;;;;;5072056;28;20206;-71
2021/06/07 07:30:09;;;;;;;28.13;19.90;;;16.50;99.90;;;;;;5073177;28;20186;-71
2021/06/07 07:32:36;;;;;;;25.20;20.42;;;16.40;99.90;;;;;;5070729;28;20643;-70
2021/06/07 07:35:03;;;;;;;28.27;20.92;;;16.30;99.90;;;;;;5064191;28;20199;-71
2021/06/07 07:37:30;;;;;;;27.55;20.27;;;16.30;99.90;;;;;;5069944;28;20224;-73
2021/06/07 07:39:57;;;;;;;27.08;22.02;;;16.40;99.90;;;;;;5067203;28;20291;-74
2021/06/07 07:42:24;;;;;;;30.35;20.63;;;16.30;99.90;;;;;;5055516;28;20256;-74
2021/06/07 07:44:51;;;;;;;28.90;20.90;;;16.40;99.90;;;;;;5069230;28;20660;-74
2021/06/07 07:47:18;;;;;;;28.95;20.77;;;16.30;99.90;;;;;;5070208;28;20591;-71
2021/06/07 07:49:46;;;;;;;26.27;20.20;;;16.30;99.90;;;;;;5067654;28;20664;-71
2021/06/07 07:52:13;;;;;;;26.65;20.27;;;16.50;99.90;;;;;;5071714;28;20662;-72
2021/06/07 07:54:40;;;;;;;23.17;17.17;;;16.70;99.90;;;;;;5067029;28;20681;-71
2021/06/07 07:57:11;;;;;;;23.13;18.67;;;16.90;99.90;;;;;;5071542;28;20564;-74
2021/06/07 07:59:37;;;;;;;25.70;19.80;;;17.10;99.90;;;;;;5055886;28;20297;-74
2021/06/07 08:02:04;;;;;;;24.88;19.40;;;17.10;99.90;;;;;;5052580;28;20275;-74
2021/06/07 08:04:31;;;;;;;26.83;21.23;;;16.80;99.90;;;;;;5052260;28;20482;-74
2021/06/07 08:06:57;;;;;;;29.55;20.17;;;17.00;99.90;;;;;;5052185;28;20206;-74
2021/06/07 08:09:24;;;;;;;25.92;19.08;;;16.70;99.90;;;;;;5069263;28;20222;-74
2021/06/07 08:11:50;;;;;;;25.10;19.65;;;16.70;99.90;;;;;;5069232;28;20206;-74
2021/06/07 08:14:18;;;;;;;25.30;20.25;;;16.80;99.90;;;;;;5071066;28;20206;-74
2021/06/07 08:16:45;;;;;;;27.80;21.13;;;16.70;99.90;;;;;;5067367;28;20230;-74
2021/06/07 08:19:11;;;;;;;24.42;19.15;;;16.80;99.90;;;;;;5071859;28;20684;-74
2021/06/07 08:21:38;;;;;;;26.40;19.40;;;17.00;99.90;;;;;;5056738;28;20222;-74
2021/06/07 08:24:05;;;;;;;24.55;19.65;;;17.00;99.90;;;;;;5071662;28;20205;-74
2021/06/07 08:26:32;;;;;;;25.35;19.38;;;17.00;99.90;;;;;;5067251;28;20626;-74
2021/06/07 08:28:58;;;;;;;24.38;18.88;;;17.10;99.90;;;;;;5070724;28;20194;-74
2021/06/07 08:31:28;;;;;;;26.38;20.15;;;17.10;99.90;;;;;;5067483;28;20203;-74
2021/06/07 08:33:55;;;;;;;26.92;20.52;;;16.70;99.90;;;;;;5071304;28;20205;-74
2021/06/07 08:36:21;;;;;;;26.55;19.40;;;17.00;99.90;;;;;;5069217;28;20221;-74
2021/06/07 08:38:48;;;;;;;24.98;19.05;;;17.10;99.90;;;;;;5062101;28;20199;-74
2021/06/07 08:41:14;;;;;;;27.38;20.55;;;17.20;99.90;;;;;;5071166;28;20214;-74
2021/06/07 08:43:41;;;;;;;25.13;19.90;;;17.20;99.90;;;;;;5065817;28;20198;-74
2021/06/07 08:46:10;;;;;;;25.90;19.98;;;17.40;99.90;;;;;;5068356;28;20228;-74
2021/06/07 08:48:38;;;;;;;27.33;20.33;;;17.60;99.90;;;;;;5066628;28;20238;-74
2021/06/07 08:51:05;;;;;;;26.10;19.52;;;17.90;99.90;;;;;;5069530;28;20202;-73
2021/06/07 08:53:32;;;;;;;25.27;20.05;;;17.90;99.90;;;;;;5071591;28;20217;-73
2021/06/07 08:55:58;;;;;;;25.00;19.52;;;17.60;99.90;;;;;;5071271;28;20199;-73
2021/06/07 08:58:28;;;;;;;25.50;19.10;;;17.80;99.90;;;;;;5071420;28;20198;-74
2021/06/07 09:00:54;;;;;;;25.73;20.30;;;18.00;99.90;;;;;;5070114;28;20222;-74
2021/06/07 09:03:22;;;;;;;26.90;20.27;;;17.90;99.90;;;;;;5068320;28;20659;-74
2021/06/07 09:05:56;;;;;;;27.27;20.13;;;18.00;99.90;;;;;;5055537;28;20607;-74
2021/06/07 09:08:28;;;;;;;23.85;18.42;;;18.20;99.90;;;;;;5061233;28;20250;-74
2021/06/07 09:10:55;;;;;;;23.95;18.05;;;18.50;99.90;;;;;;5065236;28;20206;-74
2021/06/07 09:13:23;;;;;;;27.23;18.00;;;18.30;99.90;;;;;;5064539;28;20376;-73
2021/06/07 09:15:52;;;;;;;23.33;17.73;;;18.00;99.90;;;;;;5064141;28;20264;-73
2021/06/07 09:18:28;;;;;;;23.20;17.30;;;18.10;99.90;;;;;;5065198;28;20255;-74
2021/06/07 09:21:01;;;;;;;23.20;17.77;;;18.30;99.90;;;;;;5064894;28;20232;-74
2021/06/07 09:23:39;;;;;;;22.23;16.88;;;18.70;99.90;;;;;;5065645;28;20210;-74
2021/06/07 09:26:07;;;;;;;22.50;16.75;;;18.80;99.90;;;;;;5065600;28;20234;-74
2021/06/07 09:28:39;;;;;;;22.42;16.52;;;18.50;99.90;;;;;;5064279;28;20212;-73
2021/06/07 09:31:08;;;;;;;22.45;16.55;;;18.60;99.90;;;;;;5063932;28;20209;-74
2021/06/07 09:33:37;;;;;;;23.80;17.50;;;18.40;99.90;;;;;;5064407;28;20481;-74
2021/06/07 09:36:14;;;;;;;22.83;17.00;;;18.50;99.90;;;;;;5065869;28;20249;-74
2021/06/07 09:39:11;;;;;;;24.20;17.05;;;18.50;99.90;;;;;;5064583;28;20245;-73
2021/06/07 09:42:03;;;;;;;21.90;16.52;;;18.30;99.90;;;;;;5063310;28;20230;-73
2021/06/07 09:44:34;;;;;;;23.05;16.85;;;18.00;99.90;;;;;;5065132;28;20317;-73
2021/06/07 09:47:17;;;;;;;20.63;15.35;;;18.60;99.90;;;;;;5046438;28;20206;-74
2021/06/07 09:49:47;;;;;;;24.65;18.63;;;19.40;99.90;;;;;;5066428;28;20528;-71
2021/06/07 09:52:18;;;;;;;22.55;16.95;;;18.80;99.90;;;;;;5067334;28;20202;-71
2021/06/07 09:54:44;;;;;;;22.52;17.27;;;19.20;99.90;;;;;;5067933;28;20206;-71
2021/06/07 09:57:11;;;;;;;22.27;16.58;;;18.90;99.90;;;;;;5069145;28;20202;-71
2021/06/07 09:59:40;;;;;;;21.75;17.40;;;19.10;99.90;;;;;;5067481;28;20684;-71
2021/06/07 10:02:15;;;;;;;21.73;16.80;;;19.50;99.90;;;;;;5067991;28;20624;-71
2021/06/07 10:04:55;;;;;;;19.88;15.05;;;19.50;99.90;;;;;;5068207;28;20201;-71
2021/06/07 10:07:23;;;;;;;20.65;15.68;;;19.60;99.90;;;;;;5067707;28;20202;-71
2021/06/07 10:10:09;;;;;;;20.98;16.30;;;19.70;99.90;;;;;;5068347;28;20486;-71
2021/06/07 10:12:37;;;;;;;20.23;15.43;;;19.30;99.90;;;;;;5067898;28;20205;-71
2021/06/07 10:15:04;;;;;;;22.45;16.55;;;19.30;99.90;;;;;;5068363;28;21325;-71
2021/06/07 10:17:30;;;;;;;22.10;16.23;;;19.40;99.90;;;;;;5067717;28;20206;-71
2021/06/07 10:22:43;;;;;;;21.90;15.13;;;19.30;99.90;;;;;;5049110;28;20246;-71
2021/06/07 10:25:11;;;;;;;20.98;15.38;;;19.50;99.90;;;;;;5067118;28;20214;-71
2021/06/07 10:27:38;;;;;;;20.65;15.38;;;19.50;99.90;;;;;;5071151;28;20205;-71
2021/06/07 10:30:16;;;;;;;20.25;14.88;;;19.40;99.90;;;;;;5066441;28;20207;-71
2021/06/07 10:32:42;;;;;;;19.92;15.05;;;19.60;99.90;;;;;;5070918;28;20280;-71
2021/06/07 10:35:11;;;;;;;20.17;16.13;;;19.60;99.90;;;;;;5072204;28;20252;-71
2021/06/07 10:38:04;;;;;;;20.38;14.77;;;19.30;99.90;;;;;;5070217;28;20297;-71
2021/06/07 10:40:31;;;;;;;19.23;14.68;;;19.50;99.90;;;;;;5064623;28;20559;-71
2021/06/07 10:42:59;;;;;;;19.58;13.68;;;19.70;99.90;;;;;;5064545;28;20210;-71
2021/06/07 10:45:27;;;;;;;18.52;14.15;;;20.00;99.90;;;;;;5068787;28;20202;-71
2021/06/07 10:47:54;;;;;;;17.65;13.48;;;19.80;99.90;;;;;;5071102;28;20213;-71
2021/06/07 10:50:22;;;;;;;17.02;12.20;;;19.80;99.90;;;;;;5070793;28;20848;-71
2021/06/07 10:52:54;;;;;;;17.17;13.15;;;19.60;99.90;;;;;;5070041;28;20214;-71
2021/06/07 10:55:24;;;;;;;18.13;13.38;;;19.50;99.90;;;;;;5070416;28;20256;-71
2021/06/07 10:57:54;;;;;;;16.42;12.23;;;19.80;99.90;;;;;;5066117;28;20255;-71
2021/06/07 11:00:28;;;;;;;17.20;13.15;;;20.30;99.90;;;;;;5047751;28;20565;-72
2021/06/07 11:02:56;;;;;;;16.33;12.77;;;20.40;99.90;;;;;;5046368;28;20210;-71
2021/06/07 11:05:25;;;;;;;20.63;15.38;;;20.50;99.90;;;;;;5047355;28;20199;-71
2021/06/07 11:08:07;;;;;;;16.83;13.30;;;20.30;99.90;;;;;;5055246;28;20217;-73
2021/06/07 11:10:39;;;;;;;19.52;14.25;;;20.30;99.90;;;;;;5062105;28;20214;-71
2021/06/07 11:13:09;;;;;;;20.63;14.90;;;20.20;99.90;;;;;;5066413;28;20650;-71
2021/06/07 11:15:36;;;;;;;19.10;14.25;;;20.10;99.90;;;;;;5066440;28;20217;-74
2021/06/07 11:18:34;;;;;;;19.15;14.75;;;20.40;99.90;;;;;;5063875;28;20241;-71
2021/06/07 11:21:24;;;;;;;18.95;14.98;;;19.90;99.90;;;;;;4987343;28;20691;-71
2021/06/07 11:23:50;;;;;;;19.05;14.10;;;19.80;99.90;;;;;;5042706;28;20591;-71
2021/06/07 11:26:22;;;;;;;20.50;14.07;;;20.20;99.90;;;;;;5060496;28;20234;-71
2021/06/07 11:28:49;;;;;;;17.50;13.60;;;20.50;99.90;;;;;;5062227;28;20508;-74
2021/06/07 11:31:46;;;;;;;16.83;12.80;;;20.40;99.90;;;;;;5059402;28;20206;-73
2021/06/07 11:34:13;;;;;;;17.08;12.65;;;20.50;99.90;;;;;;5035166;28;20573;-73
2021/06/07 11:36:41;;;;;;;17.30;13.55;;;20.50;99.90;;;;;;5056832;28;20677;-70
2021/06/07 11:39:10;;;;;;;17.33;13.50;;;20.30;99.90;;;;;;5055061;28;20557;-70
2021/06/07 11:41:49;;;;;;;18.05;13.27;;;20.20;99.90;;;;;;5056105;28;20234;-71
2021/06/07 11:44:17;;;;;;;18.48;14.23;;;20.40;99.90;;;;;;5055311;28;20210;-70
2021/06/07 11:47:00;;;;;;;18.70;13.73;;;20.60;99.90;;;;;;5067851;28;20252;-70
2021/06/07 11:49:26;;;;;;;18.65;12.90;;;20.70;99.90;;;;;;5066928;28;20218;-72
2021/06/07 11:52:14;;;;;;;18.00;13.57;;;21.00;99.90;;;;;;5066345;28;20210;-73
2021/06/07 11:54:52;;;;;;;14.15;10.73;;;21.10;99.90;;;;;;5081004;28;20427;-73
2021/06/07 11:57:23;;;;;;;17.30;13.32;;;21.00;99.90;;;;;;5088130;28;20204;-71
2021/06/07 11:59:59;;;;;;;17.50;12.93;;;20.90;99.90;;;;;;5048617;28;20218;-73
2021/06/07 12:02:27;;;;;;;16.20;12.13;;;20.80;99.90;;;;;;5055010;28;20222;-73
2021/06/07 12:04:54;;;;;;;18.52;12.98;;;20.30;99.90;;;;;;5060690;28;20210;-73
2021/06/07 12:07:22;;;;;;;16.40;12.45;;;20.30;99.90;;;;;;5064304;28;20206;-72
2021/06/07 12:09:50;;;;;;;18.85;14.13;;;20.30;99.90;;;;;;5066064;28;20599;-70
2021/06/07 12:12:17;;;;;;;19.02;14.25;;;20.20;99.90;;;;;;5067095;28;20202;-70
2021/06/07 12:14:46;;;;;;;20.77;15.10;;;20.10;99.90;;;;;;5067358;28;20367;-70
2021/06/07 12:17:17;;;;;;;21.70;14.80;;;20.00;99.90;;;;;;5067279;28;20303;-70
2021/06/07 12:19:47;;;;;;;21.35;15.48;;;19.90;99.90;;;;;;5064768;28;20210;-71
2021/06/07 12:22:37;;;;;;;23.60;15.95;;;20.10;99.90;;;;;;5059776;28;20232;-71
2021/06/07 12:25:16;;;;;;;22.23;15.57;;;20.10;99.90;;;;;;5063432;28;20205;-71
2021/06/07 12:30:29;;;;;;;21.27;12.95;;;20.40;99.90;;;;;;5058733;28;20209;-71
2021/06/07 12:32:56;;;;;;;18.23;13.52;;;20.50;99.90;;;;;;5059005;28;20252;-71
2021/06/07 12:35:24;;;;;;;20.77;13.98;;;20.40;99.90;;;;;;5041511;28;20746;-72
2021/06/07 12:37:53;;;;;;;18.00;13.95;;;20.10;99.90;;;;;;5045847;28;20199;-72
2021/06/07 12:40:26;;;;;;;18.50;12.98;;;20.20;99.90;;;;;;5048171;28;20238;-72